Time;durP1;ratioP1;P1;durP2;ratioP2;P2;SDS_P1;SDS_P2;PMS_P1;PMS_P2;Temp;Humidity;BMP_temperature;BMP_pressure;BME280_temperature;BME280_humidity;BME280_pressure;Samples;Min_cycle;Max_cycle;Signal;HPM_P1;HPM_P2
2023/08/07 00:02:18;;;;;;;1.00;0.90;;;;;;;13.33;100.00;95469.33;108948;1267;22525;-77
2023/08/07 00:04:49;;;;;;;0.60;0.60;;;;;;;13.34;100.00;95464.21;108950;1270;22560;-77
2023/08/07 00:07:20;;;;;;;0.80;0.80;;;;;;;13.34;100.00;95459.86;108965;1271;23738;-77
2023/08/07 00:09:51;;;;;;;3.00;0.80;;;;;;;13.35;100.00;95455.56;108987;1272;22497;-77
2023/08/07 00:12:22;;;;;;;1.00;0.70;;;;;;;13.35;100.00;95455.27;108911;1271;24014;-77
2023/08/07 00:14:54;;;;;;;0.80;0.80;;;;;;;13.34;100.00;95452.88;108973;1270;25271;-77
2023/08/07 00:17:25;;;;;;;0.60;0.60;;;;;;;13.33;100.00;95450.57;108926;1264;22536;-77
2023/08/07 00:19:56;;;;;;;1.20;0.90;;;;;;;13.33;100.00;95446.59;108980;1264;22508;-77
2023/08/07 00:22:27;;;;;;;1.90;1.20;;;;;;;13.33;100.00;95441.89;108918;1272;22512;-77
2023/08/07 00:24:58;;;;;;;1.30;0.80;;;;;;;13.33;100.00;95442.05;108923;1271;22579;-77
2023/08/07 00:27:29;;;;;;;2.00;0.90;;;;;;;13.33;100.00;95446.30;108968;1271;22624;-77
2023/08/07 00:30:00;;;;;;;1.30;0.80;;;;;;;13.34;100.00;95447.92;108909;1264;22682;-77
2023/08/07 00:32:31;;;;;;;1.40;1.00;;;;;;;13.34;100.00;95450.21;108936;1271;22538;-77
2023/08/07 00:35:03;;;;;;;2.40;1.10;;;;;;;13.35;100.00;95447.98;108945;1272;23267;-77
2023/08/07 00:37:34;;;;;;;0.80;0.80;;;;;;;13.37;100.00;95447.41;108978;1264;22505;-77
2023/08/07 00:40:06;;;;;;;3.60;1.00;;;;;;;13.38;100.00;95450.20;108959;1271;22858;-77
2023/08/07 00:42:38;;;;;;;1.00;0.80;;;;;;;13.39;100.00;95448.64;108945;1269;25417;-77
2023/08/07 00:45:11;;;;;;;1.10;0.90;;;;;;;13.39;100.00;95447.52;108933;1271;22517;-77
2023/08/07 00:47:42;;;;;;;0.60;0.60;;;;;;;13.40;100.00;95450.88;108968;1271;25155;-77
2023/08/07 00:50:14;;;;;;;1.00;0.80;;;;;;;13.40;100.00;95452.95;108913;1257;22505;-77
2023/08/07 00:52:46;;;;;;;1.10;0.90;;;;;;;13.40;100.00;95448.31;108951;1271;22661;-77
2023/08/07 00:55:16;;;;;;;1.90;1.00;;;;;;;13.40;100.00;95448.09;108919;1271;22543;-77
2023/08/07 00:57:48;;;;;;;1.70;0.80;;;;;;;13.41;100.00;95449.63;109017;1270;26520;-77
2023/08/07 01:00:20;;;;;;;0.90;0.80;;;;;;;13.41;100.00;95441.80;108899;1264;22500;-77
2023/08/07 01:02:53;;;;;;;1.60;0.70;;;;;;;13.42;100.00;95438.17;108920;1271;25284;-77
2023/08/07 01:05:25;;;;;;;1.60;0.80;;;;;;;13.43;100.00;95438.20;108953;1271;26030;-77
2023/08/07 01:07:57;;;;;;;0.60;0.60;;;;;;;13.42;100.00;95438.65;108991;1271;22516;-77
2023/08/07 01:10:50;;;;;;;0.90;0.60;;;;;;;13.41;100.00;95438.78;108978;1267;22518;-77
2023/08/07 01:13:30;;;;;;;1.10;1.00;;;;;;;13.40;100.00;95434.56;108923;1264;22602;-77
2023/08/07 01:16:07;;;;;;;0.70;0.70;;;;;;;13.40;100.00;95429.27;108960;1271;23048;-77
2023/08/07 01:18:39;;;;;;;2.00;0.80;;;;;;;13.40;100.00;95428.90;108942;1265;25309;-77
2023/08/07 01:21:20;;;;;;;0.70;0.60;;;;;;;13.39;100.00;95425.37;108965;1264;22529;-76
2023/08/07 01:23:51;;;;;;;0.70;0.70;;;;;;;13.40;100.00;95421.09;108961;1271;22580;-77
2023/08/07 01:26:22;;;;;;;0.80;0.80;;;;;;;13.40;100.00;95409.29;108976;1271;25403;-77
2023/08/07 01:29:03;;;;;;;1.00;0.80;;;;;;;13.40;100.00;95403.75;108912;1271;22645;-77
2023/08/07 01:31:37;;;;;;;0.70;0.70;;;;;;;13.41;100.00;95400.95;108921;1271;24209;-77
2023/08/07 01:34:12;;;;;;;0.70;0.70;;;;;;;13.41;100.00;95408.56;108942;1271;22553;-77
2023/08/07 01:36:43;;;;;;;1.90;1.00;;;;;;;13.43;100.00;95423.46;108971;1271;23292;-77
2023/08/07 01:39:15;;;;;;;0.90;0.90;;;;;;;13.43;100.00;95425.89;108966;1264;25246;-77
2023/08/07 01:41:47;;;;;;;1.40;0.70;;;;;;;13.43;100.00;95428.48;108965;1259;22538;-77
2023/08/07 01:44:18;;;;;;;0.70;0.60;;;;;;;13.42;100.00;95433.26;108953;1264;24109;-77
2023/08/07 01:46:49;;;;;;;1.10;0.90;;;;;;;13.42;100.00;95439.99;108935;1264;25006;-77
2023/08/07 01:49:20;;;;;;;0.90;0.80;;;;;;;13.41;100.00;95442.17;108927;1271;22698;-77
2023/08/07 01:51:51;;;;;;;1.40;0.90;;;;;;;13.40;100.00;95442.15;108954;1270;22532;-77
2023/08/07 01:54:22;;;;;;;1.80;1.00;;;;;;;13.38;100.00;95441.09;108978;1264;25261;-77
2023/08/07 01:56:53;;;;;;;1.10;0.60;;;;;;;13.35;100.00;95439.09;108936;1271;22515;-76
2023/08/07 01:59:24;;;;;;;1.10;0.80;;;;;;;13.32;100.00;95441.33;108947;1264;23869;-77
2023/08/07 02:01:55;;;;;;;1.90;1.00;;;;;;;13.29;100.00;95445.55;108881;1272;24222;-77
2023/08/07 02:04:25;;;;;;;1.00;0.90;;;;;;;13.28;100.00;95447.10;108998;1271;22531;-77
2023/08/07 02:06:56;;;;;;;1.00;0.80;;;;;;;13.27;100.00;95450.72;108875;1271;22519;-77
2023/08/07 02:09:27;;;;;;;1.00;0.90;;;;;;;13.26;100.00;95448.31;108920;1269;22528;-77
2023/08/07 02:11:58;;;;;;;2.20;0.90;;;;;;;13.24;100.00;95444.23;108928;1271;22508;-77
2023/08/07 02:14:32;;;;;;;0.70;0.70;;;;;;;13.24;100.00;95442.69;108926;1264;25433;-77
2023/08/07 02:17:03;;;;;;;1.00;0.80;;;;;;;13.24;100.00;95442.85;108936;1264;25423;-77
2023/08/07 02:19:34;;;;;;;1.10;1.10;;;;;;;13.23;100.00;95447.23;108961;1271;24008;-77
2023/08/07 02:22:06;;;;;;;0.80;0.80;;;;;;;13.24;100.00;95447.55;108926;1264;22523;-77
2023/08/07 02:24:37;;;;;;;1.40;1.10;;;;;;;13.25;100.00;95450.11;108954;1271;22535;-77
2023/08/07 02:27:10;;;;;;;1.10;1.00;;;;;;;13.25;100.00;95448.13;108961;1264;22978;-78
2023/08/07 02:29:41;;;;;;;1.90;1.00;;;;;;;13.26;100.00;95448.54;108941;1271;22549;-77
2023/08/07 02:32:12;;;;;;;1.50;1.10;;;;;;;13.26;100.00;95450.84;108917;1271;23774;-77
2023/08/07 02:34:43;;;;;;;1.20;0.90;;;;;;;13.28;100.00;95448.23;108952;1264;23655;-77
2023/08/07 02:37:14;;;;;;;1.30;1.20;;;;;;;13.29;100.00;95446.31;108966;1271;23832;-78
2023/08/07 02:39:45;;;;;;;2.00;1.00;;;;;;;13.30;100.00;95446.88;108975;1264;22556;-77
2023/08/07 02:42:16;;;;;;;1.00;0.90;;;;;;;13.30;100.00;95449.77;108949;1264;22540;-78
2023/08/07 02:44:47;;;;;;;1.90;1.10;;;;;;;13.30;100.00;95448.94;108981;1271;24208;-77
2023/08/07 02:47:19;;;;;;;1.60;1.10;;;;;;;13.31;100.00;95450.64;108998;1271;22511;-77
2023/08/07 02:49:50;;;;;;;0.90;0.90;;;;;;;13.31;100.00;95451.39;108868;1264;22577;-77
2023/08/07 02:52:20;;;;;;;2.40;1.10;;;;;;;13.29;100.00;95451.41;108918;1266;25265;-77
2023/08/07 02:54:52;;;;;;;2.20;1.20;;;;;;;13.29;100.00;95453.07;108981;1269;23837;-77
2023/08/07 02:57:23;;;;;;;1.70;1.30;;;;;;;13.29;100.00;95451.45;108985;1271;22545;-78
2023/08/07 02:59:54;;;;;;;1.40;1.20;;;;;;;13.30;100.00;95456.30;108911;1264;22542;-77
2023/08/07 03:02:24;;;;;;;2.60;1.30;;;;;;;13.30;100.00;95453.13;108906;1271;22656;-77
2023/08/07 03:04:55;;;;;;;2.00;1.50;;;;;;;13.31;100.00;95455.44;108963;1271;24301;-77
2023/08/07 03:07:26;;;;;;;1.10;1.00;;;;;;;13.32;100.00;95461.98;108943;1266;25278;-77
2023/08/07 03:09:57;;;;;;;1.20;1.10;;;;;;;13.32;100.00;95464.07;108958;1271;23789;-77
2023/08/07 03:12:28;;;;;;;1.40;1.30;;;;;;;13.33;100.00;95464.69;108937;1271;22524;-77
2023/08/07 03:15:00;;;;;;;1.30;1.20;;;;;;;13.33;100.00;95469.89;108907;1271;22978;-77
2023/08/07 03:17:31;;;;;;;1.70;1.40;;;;;;;13.34;100.00;95473.86;108972;1271;26435;-77
2023/08/07 03:20:03;;;;;;;1.80;1.30;;;;;;;13.32;100.00;95474.94;108979;1264;22527;-77
2023/08/07 03:22:34;;;;;;;1.80;1.20;;;;;;;13.29;100.00;95474.21;108893;1271;24157;-77
2023/08/07 03:25:07;;;;;;;1.40;1.10;;;;;;;13.24;100.00;95477.50;109003;1264;22524;-77
2023/08/07 03:27:37;;;;;;;2.10;1.20;;;;;;;13.21;100.00;95483.17;108950;1271;22519;-78
2023/08/07 03:30:11;;;;;;;1.90;1.30;;;;;;;13.19;100.00;95488.84;108970;1264;22504;-77
2023/08/07 03:32:42;;;;;;;2.20;1.00;;;;;;;13.17;100.00;95484.80;108929;1271;22514;-77
2023/08/07 03:35:13;;;;;;;1.20;1.10;;;;;;;13.18;100.00;95486.32;108966;1264;22515;-77
2023/08/07 03:37:44;;;;;;;1.50;1.20;;;;;;;13.22;100.00;95489.90;108886;1270;22508;-77
2023/08/07 03:40:15;;;;;;;2.60;1.50;;;;;;;13.25;100.00;95495.05;108971;1271;24140;-77
2023/08/07 03:42:46;;;;;;;1.30;1.20;;;;;;;13.28;100.00;95495.77;108996;1263;22504;-78
2023/08/07 03:45:17;;;;;;;1.50;1.40;;;;;;;13.31;100.00;95503.85;108932;1269;24330;-77
2023/08/07 03:47:48;;;;;;;1.30;1.20;;;;;;;13.33;100.00;95500.59;108998;1271;22556;-77
2023/08/07 03:50:22;;;;;;;1.40;1.30;;;;;;;13.37;100.00;95502.94;108959;1271;22528;-77
2023/08/07 03:52:53;;;;;;;1.40;1.20;;;;;;;13.40;100.00;95503.29;108983;1271;22739;-77
2023/08/07 03:55:24;;;;;;;2.80;1.60;;;;;;;13.41;100.00;95505.86;108970;1263;22616;-78
2023/08/07 03:57:55;;;;;;;1.90;0.90;;;;;;;13.42;100.00;95508.15;108988;1264;23035;-78
2023/08/07 04:00:26;;;;;;;1.40;1.30;;;;;;;13.42;100.00;95505.58;108957;1271;22523;-77
2023/08/07 04:02:57;;;;;;;2.00;1.10;;;;;;;13.44;100.00;95511.13;108898;1263;25447;-77
2023/08/07 04:05:28;;;;;;;1.50;1.40;;;;;;;13.48;100.00;95512.55;109005;1271;22504;-78
2023/08/07 04:07:59;;;;;;;1.50;1.10;;;;;;;13.50;100.00;95513.03;108980;1270;23420;-77
2023/08/07 04:10:30;;;;;;;2.20;1.40;;;;;;;13.53;100.00;95508.90;108972;1271;24891;-78
2023/08/07 04:13:01;;;;;;;2.00;1.30;;;;;;;13.55;100.00;95506.63;108974;1271;22511;-77
2023/08/07 04:15:32;;;;;;;2.70;1.20;;;;;;;13.58;100.00;95511.11;108947;1269;22557;-77
2023/08/07 04:18:03;;;;;;;1.40;1.00;;;;;;;13.60;100.00;95513.10;108930;1270;24973;-77
2023/08/07 04:20:34;;;;;;;2.80;1.30;;;;;;;13.60;100.00;95518.29;108975;1271;23063;-78
2023/08/07 04:23:06;;;;;;;1.30;1.20;;;;;;;13.62;100.00;95515.09;108947;1271;24852;-78
2023/08/07 04:25:37;;;;;;;1.30;1.20;;;;;;;13.64;100.00;95511.81;108972;1271;22533;-78
2023/08/07 04:28:08;;;;;;;1.30;1.20;;;;;;;13.68;100.00;95509.59;108958;1271;24245;-78
2023/08/07 04:30:39;;;;;;;1.40;1.00;;;;;;;13.70;100.00;95512.39;108993;1251;22567;-78
2023/08/07 04:33:10;;;;;;;1.10;0.90;;;;;;;13.71;100.00;95519.67;108966;1271;22522;-78
2023/08/07 04:35:41;;;;;;;1.40;1.20;;;;;;;13.73;100.00;95523.10;108991;1271;22537;-78
2023/08/07 04:38:12;;;;;;;1.30;1.10;;;;;;;13.75;100.00;95520.05;108982;1271;23928;-78
2023/08/07 04:40:48;;;;;;;1.20;1.10;;;;;;;13.77;100.00;95518.14;108945;1271;22511;-78
2023/08/07 04:43:20;;;;;;;0.90;0.90;;;;;;;13.80;100.00;95514.98;108926;1271;22511;-77
2023/08/07 04:45:52;;;;;;;2.20;1.30;;;;;;;13.82;100.00;95510.35;109022;1264;24212;-78
2023/08/07 04:48:25;;;;;;;1.80;1.20;;;;;;;13.85;100.00;95511.98;108978;1266;22531;-78
2023/08/07 04:50:57;;;;;;;2.90;0.90;;;;;;;13.89;100.00;95511.41;108995;1271;27821;-78
2023/08/07 04:53:29;;;;;;;1.40;0.90;;;;;;;13.91;100.00;95512.95;108937;1271;22515;-78
2023/08/07 04:56:04;;;;;;;1.10;0.90;;;;;;;13.96;100.00;95511.37;108948;1260;22511;-78
2023/08/07 04:58:35;;;;;;;2.10;1.30;;;;;;;14.00;100.00;95509.54;108946;1271;22710;-78
2023/08/07 05:01:06;;;;;;;2.20;1.10;;;;;;;14.04;100.00;95511.29;108975;1271;22502;-78
2023/08/07 05:03:37;;;;;;;3.60;1.00;;;;;;;14.08;100.00;95509.60;108936;1270;22527;-78
2023/08/07 05:06:08;;;;;;;1.10;1.00;;;;;;;14.11;100.00;95514.41;108953;1271;22573;-78
2023/08/07 05:08:39;;;;;;;1.20;1.00;;;;;;;14.12;100.00;95512.95;108942;1268;22514;-78
2023/08/07 05:11:10;;;;;;;1.30;1.10;;;;;;;14.13;100.00;95517.85;108935;1271;22501;-78
2023/08/07 05:13:41;;;;;;;1.40;1.30;;;;;;;14.15;100.00;95518.22;109008;1271;23798;-78
2023/08/07 05:16:13;;;;;;;1.90;1.40;;;;;;;14.17;100.00;95522.18;108917;1266;24195;-77
2023/08/07 05:18:44;;;;;;;2.00;1.30;;;;;;;14.17;100.00;95528.52;108961;1266;25161;-78
2023/08/07 05:21:15;;;;;;;3.00;1.10;;;;;;;14.19;100.00;95530.91;108956;1266;22664;-78
2023/08/07 05:23:47;;;;;;;1.50;1.30;;;;;;;14.21;100.00;95528.05;108985;1266;24918;-78
2023/08/07 05:26:19;;;;;;;1.40;1.30;;;;;;;14.25;100.00;95529.48;108980;1271;23857;-78
2023/08/07 05:28:50;;;;;;;1.40;1.30;;;;;;;14.29;100.00;95531.72;108958;1271;23828;-78
2023/08/07 05:31:22;;;;;;;1.80;1.40;;;;;;;14.30;100.00;95534.56;108972;1271;25414;-78
2023/08/07 05:33:53;;;;;;;1.70;1.10;;;;;;;14.31;100.00;95536.42;108963;1264;22546;-77
2023/08/07 05:36:24;;;;;;;2.00;1.30;;;;;;;14.30;100.00;95535.42;108822;1266;196408;-78
2023/08/07 05:38:55;;;;;;;1.80;1.30;;;;;;;14.30;100.00;95537.91;108942;1271;22533;-78
2023/08/07 05:41:26;;;;;;;2.60;1.00;;;;;;;14.26;100.00;95541.47;108966;1271;22972;-78
2023/08/07 05:43:57;;;;;;;1.90;1.10;;;;;;;14.23;100.00;95549.36;108954;1271;23221;-78
2023/08/07 05:46:28;;;;;;;1.70;1.30;;;;;;;14.24;100.00;95550.99;108966;1271;26491;-77
2023/08/07 05:49:00;;;;;;;1.40;1.30;;;;;;;14.24;100.00;95551.70;108949;1271;23870;-77
2023/08/07 05:51:31;;;;;;;0.90;0.90;;;;;;;14.26;100.00;95554.50;108958;1271;25418;-78
2023/08/07 05:54:02;;;;;;;1.70;1.10;;;;;;;14.26;100.00;95553.73;108982;1266;22530;-77
2023/08/07 05:56:34;;;;;;;2.40;1.10;;;;;;;14.26;100.00;95554.48;108958;1271;22517;-77
2023/08/07 05:59:05;;;;;;;1.10;1.00;;;;;;;14.25;100.00;95560.77;108947;1266;22521;-77
2023/08/07 06:01:38;;;;;;;1.70;0.90;;;;;;;14.23;100.00;95557.36;108937;1271;22538;-77
2023/08/07 06:04:09;;;;;;;1.30;1.20;;;;;;;14.20;100.00;95561.57;108969;1264;22507;-77
2023/08/07 06:06:42;;;;;;;0.80;0.70;;;;;;;14.20;100.00;95565.40;108946;1271;22511;-77
2023/08/07 06:09:15;;;;;;;1.00;0.90;;;;;;;14.20;100.00;95566.08;109013;1271;22523;-78
2023/08/07 06:11:46;;;;;;;0.70;0.70;;;;;;;14.23;100.00;95568.62;108901;1271;22526;-77
2023/08/07 06:14:18;;;;;;;1.20;1.00;;;;;;;14.28;100.00;95571.52;108988;1262;22866;-77
2023/08/07 06:16:49;;;;;;;0.60;0.60;;;;;;;14.31;100.00;95575.60;108991;1270;22512;-77
2023/08/07 06:19:22;;;;;;;2.20;0.80;;;;;;;14.36;100.00;95577.54;108988;1271;22526;-77
2023/08/07 06:21:53;;;;;;;0.80;0.70;;;;;;;14.45;100.00;95580.23;108915;1264;25248;-77
2023/08/07 06:24:25;;;;;;;0.90;0.80;;;;;;;14.50;100.00;95583.85;108948;1271;22521;-77
2023/08/07 06:26:57;;;;;;;1.00;0.70;;;;;;;14.52;100.00;95580.60;108964;1268;22508;-78
2023/08/07 06:29:30;;;;;;;0.80;0.80;;;;;;;14.52;100.00;95581.73;108924;1271;22507;-77
2023/08/07 06:32:03;;;;;;;2.80;0.90;;;;;;;14.55;100.00;95580.44;108942;1271;22510;-78
2023/08/07 06:34:37;;;;;;;1.30;1.00;;;;;;;14.65;100.00;95581.70;108933;1271;23970;-78
2023/08/07 06:37:09;;;;;;;1.60;0.90;;;;;;;14.74;100.00;95582.70;109003;1264;22650;-77
2023/08/07 06:39:40;;;;;;;1.30;1.20;;;;;;;14.86;100.00;95577.39;108977;1271;23613;-78
2023/08/07 06:42:11;;;;;;;1.80;0.90;;;;;;;14.99;100.00;95571.17;108947;1271;22625;-78
2023/08/07 06:44:42;;;;;;;1.10;1.00;;;;;;;15.06;100.00;95568.58;108985;1271;22497;-78
2023/08/07 06:47:14;;;;;;;0.90;0.70;;;;;;;15.07;100.00;95575.42;108979;1266;22554;-77
2023/08/07 06:49:45;;;;;;;1.60;0.80;;;;;;;15.00;100.00;95576.40;109000;1264;22649;-78
2023/08/07 06:52:16;;;;;;;2.50;0.80;;;;;;;14.95;100.00;95580.95;108947;1271;25204;-78
2023/08/07 06:54:48;;;;;;;0.80;0.80;;;;;;;14.94;100.00;95580.71;108924;1271;22521;-78
2023/08/07 06:57:20;;;;;;;1.90;0.70;;;;;;;14.92;100.00;95580.04;109007;1271;22604;-77
2023/08/07 06:59:51;;;;;;;0.60;0.60;;;;;;;14.84;100.00;95590.67;108973;1271;22522;-77
2023/08/07 07:02:22;;;;;;;0.90;0.60;;;;;;;14.75;100.00;95594.17;109001;1269;23914;-77
2023/08/07 07:04:53;;;;;;;0.80;0.60;;;;;;;14.71;100.00;95591.52;108946;1268;22503;-77
2023/08/07 07:07:24;;;;;;;0.60;0.60;;;;;;;14.67;100.00;95585.73;108933;1271;22504;-78
2023/08/07 07:09:55;;;;;;;0.70;0.60;;;;;;;14.65;100.00;95588.10;108983;1264;22511;-78
2023/08/07 07:12:27;;;;;;;0.80;0.50;;;;;;;14.61;100.00;95591.14;108959;1271;25264;-77
2023/08/07 07:14:58;;;;;;;1.20;0.70;;;;;;;14.58;100.00;95593.74;109009;1266;23207;-77
2023/08/07 07:17:29;;;;;;;0.40;0.30;;;;;;;14.65;100.00;95588.95;108980;1266;22507;-77
2023/08/07 07:20:00;;;;;;;1.00;0.80;;;;;;;14.76;100.00;95591.38;108955;1271;25506;-77
2023/08/07 07:22:32;;;;;;;1.60;0.60;;;;;;;14.98;100.00;95593.88;108939;1264;22520;-77
2023/08/07 07:25:03;;;;;;;0.40;0.40;;;;;;;15.37;100.00;95593.38;109005;1271;22543;-77
2023/08/07 07:27:34;;;;;;;0.40;0.40;;;;;;;15.68;100.00;95600.48;109010;1271;22521;-77
2023/08/07 07:30:08;;;;;;;0.70;0.60;;;;;;;15.76;100.00;95599.80;108947;1264;22551;-77
2023/08/07 07:32:39;;;;;;;0.30;0.30;;;;;;;15.79;100.00;95599.23;108957;1271;23462;-77
2023/08/07 07:35:11;;;;;;;0.20;0.20;;;;;;;15.69;100.00;95601.28;108953;1271;23784;-77
2023/08/07 07:37:44;;;;;;;0.40;0.40;;;;;;;15.48;99.77;95603.73;109019;1271;22532;-77
2023/08/07 07:40:16;;;;;;;0.50;0.30;;;;;;;15.36;99.82;95605.96;108947;1271;22495;-77
2023/08/07 07:42:47;;;;;;;0.60;0.60;;;;;;;15.24;99.63;95605.95;108961;1271;22536;-77
2023/08/07 07:45:18;;;;;;;0.80;0.40;;;;;;;15.16;99.87;95606.59;109002;1268;24267;-77
2023/08/07 07:47:50;;;;;;;0.70;0.40;;;;;;;15.10;99.83;95604.36;108997;1266;22568;-77
2023/08/07 07:50:21;;;;;;;0.40;0.40;;;;;;;15.08;99.94;95607.86;108992;1264;27573;-77
2023/08/07 07:52:52;;;;;;;0.40;0.40;;;;;;;15.09;100.00;95609.97;108942;1271;22514;-77
2023/08/07 07:55:23;;;;;;;0.50;0.30;;;;;;;15.13;100.00;95607.34;108994;1271;22507;-77
2023/08/07 07:57:55;;;;;;;0.80;0.30;;;;;;;15.19;100.00;95607.29;108972;1266;22520;-77
2023/08/07 08:00:27;;;;;;;1.20;0.40;;;;;;;15.29;100.00;95613.73;109000;1266;22515;-78
2023/08/07 08:02:59;;;;;;;0.70;0.30;;;;;;;15.67;100.00;95612.90;108994;1271;24038;-78
2023/08/07 08:05:30;;;;;;;0.40;0.30;;;;;;;16.17;100.00;95610.20;108994;1271;22509;-77
2023/08/07 08:08:01;;;;;;;0.30;0.30;;;;;;;16.46;99.92;95608.76;108986;1264;22722;-77
2023/08/07 08:10:33;;;;;;;0.30;0.30;;;;;;;16.57;99.28;95612.71;108998;1266;22535;-77
2023/08/07 08:13:04;;;;;;;0.20;0.20;;;;;;;17.14;100.00;95610.88;109024;1266;26424;-77
2023/08/07 08:15:36;;;;;;;0.40;0.40;;;;;;;17.46;98.45;95607.70;108942;1266;22502;-77
2023/08/07 08:18:07;;;;;;;0.70;0.30;;;;;;;17.20;96.08;95611.73;108981;1270;23010;-77
2023/08/07 08:20:39;;;;;;;0.20;0.20;;;;;;;16.98;95.54;95620.95;108977;1271;26543;-77
2023/08/07 08:23:10;;;;;;;0.20;0.20;;;;;;;16.81;95.15;95620.41;108934;1264;23240;-77
2023/08/07 08:25:41;;;;;;;0.40;0.20;;;;;;;16.62;94.83;95621.81;108993;1271;26602;-77
2023/08/07 08:28:13;;;;;;;0.20;0.20;;;;;;;16.45;94.63;95617.55;108982;1266;24054;-77
2023/08/07 08:30:44;;;;;;;0.30;0.20;;;;;;;16.39;94.61;95622.15;109025;1250;22548;-77
2023/08/07 08:33:15;;;;;;;0.40;0.30;;;;;;;16.51;95.27;95621.71;108921;1271;36004;-77
2023/08/07 08:35:46;;;;;;;0.20;0.20;;;;;;;17.30;96.73;95618.23;108946;1271;22574;-77
2023/08/07 08:38:19;;;;;;;0.70;0.10;;;;;;;17.83;94.72;95616.69;108990;1271;22507;-77
2023/08/07 08:40:53;;;;;;;0.20;0.20;;;;;;;18.02;93.25;95620.20;108935;1266;22645;-78
2023/08/07 08:43:27;;;;;;;0.20;0.20;;;;;;;18.09;92.69;95624.80;108969;1271;24323;-78
2023/08/07 08:46:00;;;;;;;1.90;0.40;;;;;;;18.47;93.68;95624.83;108963;1266;22513;-77
2023/08/07 08:48:35;;;;;;;0.70;0.20;;;;;;;18.62;91.76;95619.09;108937;1269;22784;-77
2023/08/07 08:51:07;;;;;;;0.30;0.20;;;;;;;18.30;90.28;95625.40;108967;1266;25223;-77
2023/08/07 08:53:39;;;;;;;0.30;0.20;;;;;;;17.87;88.93;95618.00;108977;1271;22627;-77
2023/08/07 08:56:12;;;;;;;0.10;0.10;;;;;;;17.30;88.24;95627.97;109066;1264;22530;-78
2023/08/07 08:58:44;;;;;;;0.20;0.20;;;;;;;16.89;88.25;95634.17;108958;1271;22563;-77
2023/08/07 09:01:16;;;;;;;0.20;0.20;;;;;;;16.61;88.32;95634.23;108969;1266;22522;-77
2023/08/07 09:03:48;;;;;;;1.30;0.20;;;;;;;16.45;88.54;95631.71;108946;1266;24033;-77
2023/08/07 09:06:21;;;;;;;6.30;4.70;;;;;;;16.33;88.61;95634.89;109009;1271;22708;-77
2023/08/07 09:08:54;;;;;;;0.70;0.50;;;;;;;16.26;88.91;95636.16;109032;1264;22492;-77
2023/08/07 09:11:25;;;;;;;0.40;0.30;;;;;;;16.34;89.63;95635.00;108970;1266;22531;-77
2023/08/07 09:13:58;;;;;;;0.50;0.30;;;;;;;16.48;89.47;95636.48;108955;1271;22504;-77
2023/08/07 09:16:31;;;;;;;2.00;1.70;;;;;;;16.52;88.95;95634.98;108940;1271;24208;-77
2023/08/07 09:19:02;;;;;;;11.20;10.10;;;;;;;16.49;88.53;95630.84;108899;1271;22576;-77
2023/08/07 09:21:34;;;;;;;0.50;0.50;;;;;;;16.47;88.66;95637.61;108964;1266;25289;-77
2023/08/07 09:24:06;;;;;;;0.20;0.20;;;;;;;16.50;88.89;95635.39;108986;1271;26424;-77
2023/08/07 09:26:38;;;;;;;0.10;0.00;;;;;;;16.53;88.96;95641.34;108995;1260;22532;-77
2023/08/07 09:29:11;;;;;;;0.50;0.20;;;;;;;16.69;89.80;95636.77;108932;1268;24199;-77
2023/08/07 09:31:46;;;;;;;0.10;0.10;;;;;;;17.02;90.57;95634.74;108969;1271;22543;-77
2023/08/07 09:34:22;;;;;;;0.20;0.20;;;;;;;17.32;89.71;95636.35;108958;1271;25411;-77
2023/08/07 09:36:54;;;;;;;0.60;0.10;;;;;;;17.53;89.30;95634.50;108989;1271;22508;-77
2023/08/07 09:39:28;;;;;;;0.40;0.10;;;;;;;17.70;88.46;95633.56;108972;1271;22527;-78
2023/08/07 09:42:01;;;;;;;1.60;1.40;;;;;;;17.77;87.84;95634.43;109007;1271;25429;-77
2023/08/07 09:44:39;;;;;;;1.90;0.20;;;;;;;17.70;86.93;95631.42;109025;1271;23921;-78
2023/08/07 09:47:16;;;;;;;0.30;0.20;;;;;;;17.70;87.44;95637.70;108952;1271;22520;-78
2023/08/07 09:49:49;;;;;;;0.40;0.30;;;;;;;17.84;87.01;95634.95;108982;1253;23189;-78
2023/08/07 09:52:21;;;;;;;0.50;0.30;;;;;;;17.65;85.32;95634.64;108943;1271;22507;-77
2023/08/07 09:54:55;;;;;;;0.80;0.50;;;;;;;17.22;84.07;95636.95;109022;1271;26558;-78
2023/08/07 09:57:27;;;;;;;0.20;0.10;;;;;;;16.93;84.57;95644.98;108911;1269;25077;-78
2023/08/07 10:00:01;;;;;;;2.50;0.40;;;;;;;16.82;85.22;95645.63;108992;1271;23281;-77
2023/08/07 10:02:32;;;;;;;0.10;0.10;;;;;;;16.79;85.48;95646.38;108972;1271;25498;-78
2023/08/07 10:05:05;;;;;;;1.10;0.30;;;;;;;16.83;85.64;95644.79;108971;1271;25441;-78
2023/08/07 10:07:37;;;;;;;1.00;0.30;;;;;;;16.89;85.38;95643.98;108935;1271;23729;-78
2023/08/07 10:10:11;;;;;;;0.40;0.40;;;;;;;17.02;85.64;95643.63;108982;1266;25151;-78
2023/08/07 10:12:45;;;;;;;0.20;0.20;;;;;;;17.13;85.13;95646.27;109017;1267;24311;-77
2023/08/07 10:15:18;;;;;;;0.60;0.20;;;;;;;17.18;84.76;95648.65;108935;1269;22504;-77
2023/08/07 10:17:50;;;;;;;0.30;0.20;;;;;;;17.17;84.60;95647.08;108982;1269;24202;-78
2023/08/07 10:20:22;;;;;;;1.10;0.40;;;;;;;17.10;84.13;95649.27;108980;1271;24210;-78
2023/08/07 10:22:57;;;;;;;0.90;0.20;;;;;;;17.06;84.16;95648.86;108891;1271;24187;-78
2023/08/07 10:25:30;;;;;;;0.60;0.30;;;;;;;17.09;84.46;95643.59;108953;1271;23875;-78
2023/08/07 10:28:04;;;;;;;0.80;0.40;;;;;;;17.03;83.83;95648.31;108971;1271;22538;-78
2023/08/07 10:30:37;;;;;;;0.50;0.40;;;;;;;16.88;83.49;95652.58;108959;1271;22994;-78
2023/08/07 10:33:10;;;;;;;1.10;0.70;;;;;;;16.70;83.34;95656.14;108933;1271;22510;-78
2023/08/07 10:35:48;;;;;;;0.40;0.30;;;;;;;16.54;83.44;95653.01;108957;1267;25236;-78
2023/08/07 10:38:24;;;;;;;0.20;0.20;;;;;;;16.37;83.25;95657.27;109064;1271;22616;-78
2023/08/07 10:41:09;;;;;;;0.20;0.10;;;;;;;16.26;83.39;95660.96;109030;1271;25605;-79
2023/08/07 10:43:42;;;;;;;1.00;0.30;;;;;;;16.14;83.79;95659.15;109028;1271;25224;-79
2023/08/07 10:46:16;;;;;;;0.20;0.20;;;;;;;16.06;84.56;95659.31;108992;1250;22519;-79
2023/08/07 10:48:57;;;;;;;1.30;0.30;;;;;;;16.08;85.41;95655.80;108991;1271;24216;-78
2023/08/07 10:51:32;;;;;;;0.50;0.20;;;;;;;16.16;85.91;95650.05;108935;1271;23747;-77
2023/08/07 10:54:04;;;;;;;0.20;0.20;;;;;;;16.23;86.16;95657.36;108992;1271;24877;-78
2023/08/07 10:56:37;;;;;;;0.30;0.20;;;;;;;16.30;86.73;95655.96;108980;1266;22584;-78
2023/08/07 10:59:12;;;;;;;0.60;0.40;;;;;;;16.38;87.24;95657.65;108980;1267;24224;-78
2023/08/07 11:01:45;;;;;;;1.50;0.50;;;;;;;16.38;87.23;95659.12;108955;1266;22610;-78
2023/08/07 11:04:17;;;;;;;0.70;0.10;;;;;;;16.25;86.79;95666.69;109008;1271;22501;-78
2023/08/07 11:06:50;;;;;;;1.00;0.70;;;;;;;16.08;86.59;95666.77;108963;1268;22520;-78
2023/08/07 11:09:21;;;;;;;2.20;1.50;;;;;;;15.94;86.86;95666.66;109000;1271;22559;-78
2023/08/07 11:11:53;;;;;;;0.30;0.20;;;;;;;15.81;86.96;95671.27;108937;1271;22519;-78
2023/08/07 11:14:26;;;;;;;0.20;0.20;;;;;;;15.72;87.68;95671.60;108982;1271;23088;-78
2023/08/07 11:16:58;;;;;;;0.30;0.30;;;;;;;15.81;88.66;95670.52;108951;1267;22569;-78
2023/08/07 11:19:29;;;;;;;0.40;0.30;;;;;;;16.14;90.58;95667.17;108995;1271;22621;-78
2023/08/07 11:22:01;;;;;;;0.90;0.20;;;;;;;16.54;91.18;95668.13;108985;1271;22527;-77
2023/08/07 11:24:33;;;;;;;0.60;0.50;;;;;;;16.77;90.35;95670.80;108953;1269;22577;-78
2023/08/07 11:27:04;;;;;;;1.60;0.70;;;;;;;16.85;89.82;95671.09;108991;1271;22511;-78
2023/08/07 11:29:37;;;;;;;1.80;0.40;;;;;;;16.84;88.97;95671.53;108979;1271;22602;-78
2023/08/07 11:32:12;;;;;;;0.80;0.20;;;;;;;16.72;88.29;95669.36;108967;1266;22505;-77
2023/08/07 11:34:48;;;;;;;0.10;0.10;;;;;;;16.62;87.98;95670.80;109013;1271;23876;-77
2023/08/07 11:37:20;;;;;;;0.50;0.30;;;;;;;16.54;87.74;95680.81;108982;1269;22576;-78
2023/08/07 11:39:53;;;;;;;0.20;0.20;;;;;;;16.49;87.98;95684.95;108910;1271;22510;-78
2023/08/07 11:42:30;;;;;;;0.70;0.40;;;;;;;16.49;88.41;95690.27;108983;1271;22495;-78